sensor_id;sensor_type;location;lat;lon;timestamp;P1;durP1;ratioP1;P2;durP2;ratioP2
31872;SDS011;22407;42.820;23.374;2023-08-21T00:01:35;13.45;;;7.30;;
31872;SDS011;22407;42.820;23.374;2023-08-21T00:04:01;11.13;;;7.10;;
31872;SDS011;22407;42.820;23.374;2023-08-21T00:06:26;11.37;;;7.40;;
31872;SDS011;22407;42.820;23.374;2023-08-21T00:08:51;13.80;;;7.50;;
31872;SDS011;22407;42.820;23.374;2023-08-21T00:11:16;12.47;;;7.53;;
31872;SDS011;22407;42.820;23.374;2023-08-21T00:13:42;11.93;;;7.63;;
31872;SDS011;22407;42.820;23.374;2023-08-21T00:16:09;12.27;;;7.47;;
31872;SDS011;22407;42.820;23.374;2023-08-21T00:18:35;12.23;;;7.30;;
31872;SDS011;22407;42.820;23.374;2023-08-21T00:21:00;11.83;;;7.57;;
31872;SDS011;22407;42.820;23.374;2023-08-21T00:23:25;12.57;;;7.30;;
31872;SDS011;22407;42.820;23.374;2023-08-21T00:25:50;11.93;;;7.60;;
31872;SDS011;22407;42.820;23.374;2023-08-21T00:28:16;11.70;;;7.33;;
31872;SDS011;22407;42.820;23.374;2023-08-21T00:30:42;11.20;;;7.20;;
31872;SDS011;22407;42.820;23.374;2023-08-21T00:33:07;13.38;;;7.50;;
31872;SDS011;22407;42.820;23.374;2023-08-21T00:35:32;12.20;;;7.57;;
31872;SDS011;22407;42.820;23.374;2023-08-21T00:37:57;10.90;;;7.00;;
31872;SDS011;22407;42.820;23.374;2023-08-21T00:40:23;12.13;;;7.70;;
31872;SDS011;22407;42.820;23.374;2023-08-21T00:42:48;12.40;;;7.40;;
31872;SDS011;22407;42.820;23.374;2023-08-21T00:45:13;11.27;;;7.55;;
31872;SDS011;22407;42.820;23.374;2023-08-21T00:47:39;12.00;;;7.40;;
31872;SDS011;22407;42.820;23.374;2023-08-21T00:50:06;12.20;;;7.47;;
31872;SDS011;22407;42.820;23.374;2023-08-21T00:52:32;11.95;;;7.55;;
31872;SDS011;22407;42.820;23.374;2023-08-21T00:54:58;12.90;;;7.50;;
31872;SDS011;22407;42.820;23.374;2023-08-21T00:57:24;13.10;;;7.77;;
31872;SDS011;22407;42.820;23.374;2023-08-21T00:59:49;12.30;;;7.90;;
31872;SDS011;22407;42.820;23.374;2023-08-21T01:02:14;12.97;;;7.73;;
31872;SDS011;22407;42.820;23.374;2023-08-21T01:04:40;12.68;;;7.63;;
31872;SDS011;22407;42.820;23.374;2023-08-21T01:07:05;12.67;;;7.70;;
31872;SDS011;22407;42.820;23.374;2023-08-21T01:17:09;12.10;;;7.35;;
31872;SDS011;22407;42.820;23.374;2023-08-21T01:19:36;12.98;;;7.40;;
31872;SDS011;22407;42.820;23.374;2023-08-21T01:22:02;12.83;;;7.50;;
31872;SDS011;22407;42.820;23.374;2023-08-21T01:24:27;12.20;;;7.33;;
31872;SDS011;22407;42.820;23.374;2023-08-21T01:26:53;11.97;;;7.17;;
31872;SDS011;22407;42.820;23.374;2023-08-21T01:29:18;12.07;;;7.77;;
31872;SDS011;22407;42.820;23.374;2023-08-21T01:31:44;12.10;;;7.30;;
31872;SDS011;22407;42.820;23.374;2023-08-21T01:34:11;13.77;;;7.97;;
31872;SDS011;22407;42.820;23.374;2023-08-21T01:36:38;13.15;;;7.85;;
31872;SDS011;22407;42.820;23.374;2023-08-21T01:39:04;12.07;;;7.30;;
31872;SDS011;22407;42.820;23.374;2023-08-21T01:41:29;12.83;;;7.90;;
31872;SDS011;22407;42.820;23.374;2023-08-21T01:43:55;12.60;;;8.00;;
31872;SDS011;22407;42.820;23.374;2023-08-21T01:46:20;12.50;;;8.00;;
31872;SDS011;22407;42.820;23.374;2023-08-21T01:48:45;13.63;;;8.03;;
31872;SDS011;22407;42.820;23.374;2023-08-21T01:51:11;13.20;;;8.17;;
31872;SDS011;22407;42.820;23.374;2023-08-21T01:53:36;12.73;;;7.80;;
31872;SDS011;22407;42.820;23.374;2023-08-21T01:56:01;13.07;;;8.03;;
31872;SDS011;22407;42.820;23.374;2023-08-21T01:58:26;13.03;;;7.90;;
31872;SDS011;22407;42.820;23.374;2023-08-21T02:00:52;12.38;;;7.55;;
31872;SDS011;22407;42.820;23.374;2023-08-21T02:03:17;12.50;;;7.83;;
31872;SDS011;22407;42.820;23.374;2023-08-21T02:05:42;13.20;;;8.00;;
31872;SDS011;22407;42.820;23.374;2023-08-21T02:08:10;13.10;;;8.20;;
31872;SDS011;22407;42.820;23.374;2023-08-21T02:10:35;12.70;;;7.88;;
31872;SDS011;22407;42.820;23.374;2023-08-21T02:13:00;12.17;;;7.97;;
31872;SDS011;22407;42.820;23.374;2023-08-21T02:15:26;15.07;;;7.90;;
31872;SDS011;22407;42.820;23.374;2023-08-21T02:17:51;13.83;;;8.30;;
31872;SDS011;22407;42.820;23.374;2023-08-21T02:20:16;13.87;;;7.93;;
31872;SDS011;22407;42.820;23.374;2023-08-21T02:22:42;12.93;;;8.00;;
31872;SDS011;22407;42.820;23.374;2023-08-21T02:25:07;12.97;;;8.00;;
31872;SDS011;22407;42.820;23.374;2023-08-21T02:27:33;13.15;;;8.45;;
31872;SDS011;22407;42.820;23.374;2023-08-21T02:29:58;12.17;;;8.03;;
31872;SDS011;22407;42.820;23.374;2023-08-21T02:32:23;12.83;;;8.20;;
31872;SDS011;22407;42.820;23.374;2023-08-21T02:34:48;13.23;;;8.57;;
31872;SDS011;22407;42.820;23.374;2023-08-21T02:37:14;13.40;;;8.40;;
31872;SDS011;22407;42.820;23.374;2023-08-21T02:39:39;12.77;;;8.00;;
31872;SDS011;22407;42.820;23.374;2023-08-21T02:42:04;13.07;;;8.37;;
31872;SDS011;22407;42.820;23.374;2023-08-21T02:44:29;13.10;;;8.00;;
31872;SDS011;22407;42.820;23.374;2023-08-21T02:46:55;13.05;;;8.20;;
31872;SDS011;22407;42.820;23.374;2023-08-21T02:49:20;13.27;;;7.93;;
31872;SDS011;22407;42.820;23.374;2023-08-21T02:51:45;14.57;;;8.13;;
31872;SDS011;22407;42.820;23.374;2023-08-21T02:54:11;13.93;;;8.10;;
31872;SDS011;22407;42.820;23.374;2023-08-21T02:56:36;14.40;;;8.47;;
31872;SDS011;22407;42.820;23.374;2023-08-21T02:59:01;12.68;;;8.20;;
31872;SDS011;22407;42.820;23.374;2023-08-21T03:01:27;13.50;;;8.13;;
31872;SDS011;22407;42.820;23.374;2023-08-21T03:03:52;14.70;;;8.20;;
31872;SDS011;22407;42.820;23.374;2023-08-21T03:06:18;15.30;;;8.30;;
31872;SDS011;22407;42.820;23.374;2023-08-21T03:08:43;13.43;;;8.03;;
31872;SDS011;22407;42.820;23.374;2023-08-21T03:11:09;12.18;;;7.78;;
31872;SDS011;22407;42.820;23.374;2023-08-21T03:13:34;13.10;;;8.27;;
31872;SDS011;22407;42.820;23.374;2023-08-21T03:15:59;14.30;;;8.13;;
31872;SDS011;22407;42.820;23.374;2023-08-21T03:18:24;13.73;;;8.60;;
31872;SDS011;22407;42.820;23.374;2023-08-21T03:20:50;15.43;;;8.20;;
31872;SDS011;22407;42.820;23.374;2023-08-21T03:23:15;14.80;;;8.50;;
31872;SDS011;22407;42.820;23.374;2023-08-21T03:25:40;17.40;;;8.30;;
31872;SDS011;22407;42.820;23.374;2023-08-21T03:28:06;15.43;;;8.50;;
31872;SDS011;22407;42.820;23.374;2023-08-21T03:30:31;13.37;;;8.73;;
31872;SDS011;22407;42.820;23.374;2023-08-21T03:32:56;13.87;;;8.20;;
31872;SDS011;22407;42.820;23.374;2023-08-21T03:35:22;14.27;;;8.30;;
31872;SDS011;22407;42.820;23.374;2023-08-21T03:37:47;16.87;;;8.87;;
31872;SDS011;22407;42.820;23.374;2023-08-21T03:40:12;18.93;;;8.50;;
31872;SDS011;22407;42.820;23.374;2023-08-21T03:42:37;14.70;;;8.60;;
31872;SDS011;22407;42.820;23.374;2023-08-21T03:45:03;13.70;;;8.80;;
31872;SDS011;22407;42.820;23.374;2023-08-21T03:47:31;17.35;;;8.60;;
31872;SDS011;22407;42.820;23.374;2023-08-21T03:49:56;14.82;;;8.30;;
31872;SDS011;22407;42.820;23.374;2023-08-21T03:52:22;22.00;;;9.00;;
31872;SDS011;22407;42.820;23.374;2023-08-21T03:54:47;19.07;;;9.23;;
31872;SDS011;22407;42.820;23.374;2023-08-21T03:57:12;17.90;;;9.00;;
31872;SDS011;22407;42.820;23.374;2023-08-21T03:59:38;16.17;;;9.10;;
31872;SDS011;22407;42.820;23.374;2023-08-21T04:02:03;18.87;;;9.17;;
31872;SDS011;22407;42.820;23.374;2023-08-21T04:04:28;15.83;;;9.03;;
31872;SDS011;22407;42.820;23.374;2023-08-21T04:06:53;14.70;;;9.00;;
31872;SDS011;22407;42.820;23.374;2023-08-21T04:09:19;15.70;;;8.53;;
31872;SDS011;22407;42.820;23.374;2023-08-21T04:11:44;17.60;;;8.80;;
31872;SDS011;22407;42.820;23.374;2023-08-21T04:14:09;20.07;;;8.63;;
31872;SDS011;22407;42.820;23.374;2023-08-21T04:16:34;15.70;;;8.40;;
31872;SDS011;22407;42.820;23.374;2023-08-21T04:19:00;15.97;;;8.70;;
31872;SDS011;22407;42.820;23.374;2023-08-21T04:21:25;16.48;;;8.40;;
31872;SDS011;22407;42.820;23.374;2023-08-21T04:23:50;14.77;;;8.63;;
31872;SDS011;22407;42.820;23.374;2023-08-21T04:26:16;16.57;;;8.60;;
31872;SDS011;22407;42.820;23.374;2023-08-21T04:28:41;16.33;;;8.20;;
31872;SDS011;22407;42.820;23.374;2023-08-21T04:31:07;14.85;;;8.40;;
31872;SDS011;22407;42.820;23.374;2023-08-21T04:33:32;14.63;;;8.23;;
31872;SDS011;22407;42.820;23.374;2023-08-21T04:35:57;13.48;;;8.40;;
31872;SDS011;22407;42.820;23.374;2023-08-21T04:38:23;19.13;;;9.67;;
31872;SDS011;22407;42.820;23.374;2023-08-21T04:40:48;19.87;;;9.63;;
31872;SDS011;22407;42.820;23.374;2023-08-21T04:43:13;16.33;;;9.37;;
31872;SDS011;22407;42.820;23.374;2023-08-21T04:45:45;14.70;;;8.90;;
31872;SDS011;22407;42.820;23.374;2023-08-21T04:48:10;14.77;;;8.55;;
31872;SDS011;22407;42.820;23.374;2023-08-21T04:50:35;14.97;;;8.67;;
31872;SDS011;22407;42.820;23.374;2023-08-21T04:53:01;17.60;;;8.70;;
31872;SDS011;22407;42.820;23.374;2023-08-21T04:55:26;16.40;;;8.63;;
31872;SDS011;22407;42.820;23.374;2023-08-21T04:57:51;17.03;;;8.60;;
31872;SDS011;22407;42.820;23.374;2023-08-21T05:00:17;14.43;;;8.60;;
31872;SDS011;22407;42.820;23.374;2023-08-21T05:02:42;16.53;;;9.10;;
31872;SDS011;22407;42.820;23.374;2023-08-21T05:05:07;15.70;;;9.20;;
31872;SDS011;22407;42.820;23.374;2023-08-21T05:07:34;21.35;;;9.27;;
31872;SDS011;22407;42.820;23.374;2023-08-21T05:09:59;15.67;;;8.73;;
31872;SDS011;22407;42.820;23.374;2023-08-21T05:12:25;15.80;;;8.80;;
31872;SDS011;22407;42.820;23.374;2023-08-21T05:14:51;15.77;;;8.97;;
31872;SDS011;22407;42.820;23.374;2023-08-21T05:17:16;15.70;;;9.33;;
31872;SDS011;22407;42.820;23.374;2023-08-21T05:19:41;16.47;;;9.07;;
31872;SDS011;22407;42.820;23.374;2023-08-21T05:22:07;29.77;;;11.03;;
31872;SDS011;22407;42.820;23.374;2023-08-21T05:24:32;16.53;;;10.10;;
31872;SDS011;22407;42.820;23.374;2023-08-21T05:26:57;18.07;;;10.57;;
31872;SDS011;22407;42.820;23.374;2023-08-21T05:29:22;19.40;;;11.73;;
31872;SDS011;22407;42.820;23.374;2023-08-21T05:31:48;18.38;;;11.48;;
31872;SDS011;22407;42.820;23.374;2023-08-21T05:34:13;19.80;;;11.67;;
31872;SDS011;22407;42.820;23.374;2023-08-21T05:36:38;19.30;;;11.60;;
31872;SDS011;22407;42.820;23.374;2023-08-21T05:39:04;16.57;;;10.30;;
31872;SDS011;22407;42.820;23.374;2023-08-21T05:41:30;18.13;;;10.55;;
31872;SDS011;22407;42.820;23.374;2023-08-21T05:43:56;16.57;;;10.60;;
31872;SDS011;22407;42.820;23.374;2023-08-21T05:46:21;17.93;;;10.97;;
31872;SDS011;22407;42.820;23.374;2023-08-21T05:48:46;16.10;;;10.30;;
31872;SDS011;22407;42.820;23.374;2023-08-21T05:51:12;17.93;;;11.20;;
31872;SDS011;22407;42.820;23.374;2023-08-21T05:53:37;19.73;;;11.37;;
31872;SDS011;22407;42.820;23.374;2023-08-21T05:56:02;17.60;;;10.85;;
31872;SDS011;22407;42.820;23.374;2023-08-21T05:58:28;16.07;;;9.83;;
31872;SDS011;22407;42.820;23.374;2023-08-21T06:00:56;16.10;;;9.85;;
31872;SDS011;22407;42.820;23.374;2023-08-21T06:03:21;14.52;;;9.65;;
31872;SDS011;22407;42.820;23.374;2023-08-21T06:05:47;14.53;;;9.13;;
31872;SDS011;22407;42.820;23.374;2023-08-21T06:08:12;16.70;;;9.23;;
31872;SDS011;22407;42.820;23.374;2023-08-21T06:10:37;16.87;;;9.77;;
31872;SDS011;22407;42.820;23.374;2023-08-21T06:13:03;14.60;;;9.10;;
31872;SDS011;22407;42.820;23.374;2023-08-21T06:15:28;17.27;;;9.70;;
31872;SDS011;22407;42.820;23.374;2023-08-21T06:17:53;14.70;;;9.33;;
31872;SDS011;22407;42.820;23.374;2023-08-21T06:20:19;14.75;;;8.98;;
31872;SDS011;22407;42.820;23.374;2023-08-21T06:22:45;14.63;;;8.80;;
31872;SDS011;22407;42.820;23.374;2023-08-21T06:25:10;14.10;;;8.80;;
31872;SDS011;22407;42.820;23.374;2023-08-21T06:27:35;16.30;;;8.63;;
31872;SDS011;22407;42.820;23.374;2023-08-21T06:30:01;13.82;;;8.57;;
31872;SDS011;22407;42.820;23.374;2023-08-21T06:32:26;14.53;;;8.10;;
31872;SDS011;22407;42.820;23.374;2023-08-21T06:34:51;14.17;;;8.10;;
31872;SDS011;22407;42.820;23.374;2023-08-21T06:37:17;15.13;;;7.47;;
31872;SDS011;22407;42.820;23.374;2023-08-21T06:39:42;13.47;;;7.90;;
31872;SDS011;22407;42.820;23.374;2023-08-21T06:42:07;14.90;;;7.77;;
31872;SDS011;22407;42.820;23.374;2023-08-21T06:44:33;13.43;;;7.83;;
31872;SDS011;22407;42.820;23.374;2023-08-21T06:46:58;12.40;;;7.60;;
31872;SDS011;22407;42.820;23.374;2023-08-21T06:49:23;12.53;;;7.00;;
31872;SDS011;22407;42.820;23.374;2023-08-21T06:51:49;11.20;;;7.17;;
31872;SDS011;22407;42.820;23.374;2023-08-21T06:54:14;11.63;;;7.13;;
31872;SDS011;22407;42.820;23.374;2023-08-21T06:56:39;12.60;;;7.10;;
31872;SDS011;22407;42.820;23.374;2023-08-21T06:59:05;17.70;;;7.50;;
31872;SDS011;22407;42.820;23.374;2023-08-21T07:01:30;13.87;;;7.67;;
31872;SDS011;22407;42.820;23.374;2023-08-21T07:03:55;12.65;;;7.85;;
31872;SDS011;22407;42.820;23.374;2023-08-21T07:06:20;16.00;;;8.23;;
31872;SDS011;22407;42.820;23.374;2023-08-21T07:08:46;13.37;;;7.40;;
31872;SDS011;22407;42.820;23.374;2023-08-21T07:11:11;12.80;;;7.43;;
31872;SDS011;22407;42.820;23.374;2023-08-21T07:13:37;12.15;;;7.45;;
31872;SDS011;22407;42.820;23.374;2023-08-21T07:16:02;16.42;;;7.60;;
31872;SDS011;22407;42.820;23.374;2023-08-21T07:18:31;12.60;;;7.20;;
31872;SDS011;22407;42.820;23.374;2023-08-21T07:20:56;15.13;;;7.40;;
31872;SDS011;22407;42.820;23.374;2023-08-21T07:23:22;13.03;;;7.30;;
31872;SDS011;22407;42.820;23.374;2023-08-21T07:25:47;13.47;;;7.50;;
31872;SDS011;22407;42.820;23.374;2023-08-21T07:28:12;13.43;;;7.30;;
31872;SDS011;22407;42.820;23.374;2023-08-21T07:30:38;13.00;;;7.30;;
31872;SDS011;22407;42.820;23.374;2023-08-21T07:33:03;11.57;;;7.23;;
31872;SDS011;22407;42.820;23.374;2023-08-21T07:35:29;12.90;;;7.30;;
31872;SDS011;22407;42.820;23.374;2023-08-21T07:37:54;13.80;;;7.07;;
31872;SDS011;22407;42.820;23.374;2023-08-21T07:40:19;13.27;;;7.37;;
31872;SDS011;22407;42.820;23.374;2023-08-21T07:42:45;11.63;;;6.80;;
31872;SDS011;22407;42.820;23.374;2023-08-21T07:45:10;13.50;;;7.03;;
31872;SDS011;22407;42.820;23.374;2023-08-21T07:47:36;11.77;;;6.65;;
31872;SDS011;22407;42.820;23.374;2023-08-21T07:50:01;14.47;;;6.90;;
31872;SDS011;22407;42.820;23.374;2023-08-21T07:52:26;16.13;;;7.07;;
31872;SDS011;22407;42.820;23.374;2023-08-21T07:54:54;11.83;;;6.70;;
31872;SDS011;22407;42.820;23.374;2023-08-21T07:57:20;11.93;;;6.60;;
31872;SDS011;22407;42.820;23.374;2023-08-21T07:59:45;13.07;;;7.13;;
31872;SDS011;22407;42.820;23.374;2023-08-21T08:02:10;12.50;;;7.17;;
31872;SDS011;22407;42.820;23.374;2023-08-21T08:04:37;15.60;;;7.22;;
31872;SDS011;22407;42.820;23.374;2023-08-21T08:07:03;13.00;;;6.70;;
31872;SDS011;22407;42.820;23.374;2023-08-21T08:09:28;13.52;;;6.72;;
31872;SDS011;22407;42.820;23.374;2023-08-21T08:11:54;12.45;;;6.15;;
31872;SDS011;22407;42.820;23.374;2023-08-21T08:14:20;11.50;;;6.50;;
31872;SDS011;22407;42.820;23.374;2023-08-21T08:16:48;12.60;;;6.60;;
31872;SDS011;22407;42.820;23.374;2023-08-21T08:19:14;12.33;;;6.70;;
31872;SDS011;22407;42.820;23.374;2023-08-21T08:21:39;12.03;;;6.00;;
31872;SDS011;22407;42.820;23.374;2023-08-21T08:24:04;10.40;;;6.00;;
31872;SDS011;22407;42.820;23.374;2023-08-21T08:26:30;11.20;;;6.47;;
31872;SDS011;22407;42.820;23.374;2023-08-21T08:28:55;12.73;;;6.20;;
31872;SDS011;22407;42.820;23.374;2023-08-21T08:31:20;11.17;;;6.10;;
31872;SDS011;22407;42.820;23.374;2023-08-21T08:33:46;11.57;;;6.25;;
31872;SDS011;22407;42.820;23.374;2023-08-21T08:36:13;11.50;;;6.15;;
31872;SDS011;22407;42.820;23.374;2023-08-21T08:38:38;11.40;;;6.23;;
31872;SDS011;22407;42.820;23.374;2023-08-21T08:41:05;12.87;;;6.30;;
31872;SDS011;22407;42.820;23.374;2023-08-21T08:43:32;10.68;;;6.05;;
31872;SDS011;22407;42.820;23.374;2023-08-21T08:45:59;12.13;;;6.63;;
31872;SDS011;22407;42.820;23.374;2023-08-21T08:48:25;11.10;;;6.27;;
31872;SDS011;22407;42.820;23.374;2023-08-21T08:50:51;11.75;;;6.25;;
31872;SDS011;22407;42.820;23.374;2023-08-21T08:53:17;11.50;;;6.30;;
31872;SDS011;22407;42.820;23.374;2023-08-21T08:55:43;12.03;;;6.57;;
31872;SDS011;22407;42.820;23.374;2023-08-21T08:58:08;10.65;;;6.18;;
31872;SDS011;22407;42.820;23.374;2023-08-21T09:00:33;12.67;;;6.60;;
31872;SDS011;22407;42.820;23.374;2023-08-21T09:02:59;9.33;;;6.33;;
31872;SDS011;22407;42.820;23.374;2023-08-21T09:05:24;12.20;;;6.63;;
31872;SDS011;22407;42.820;23.374;2023-08-21T09:10:35;10.73;;;6.13;;
31872;SDS011;22407;42.820;23.374;2023-08-21T09:13:01;10.80;;;6.40;;
31872;SDS011;22407;42.820;23.374;2023-08-21T09:15:33;10.95;;;6.38;;
31872;SDS011;22407;42.820;23.374;2023-08-21T09:17:58;12.23;;;6.40;;
31872;SDS011;22407;42.820;23.374;2023-08-21T09:20:24;11.93;;;6.13;;
31872;SDS011;22407;42.820;23.374;2023-08-21T09:22:53;9.80;;;6.00;;
31872;SDS011;22407;42.820;23.374;2023-08-21T09:25:19;10.93;;;5.72;;
31872;SDS011;22407;42.820;23.374;2023-08-21T09:27:45;10.93;;;6.10;;
31872;SDS011;22407;42.820;23.374;2023-08-21T09:30:10;10.10;;;5.70;;
31872;SDS011;22407;42.820;23.374;2023-08-21T09:33:12;10.05;;;5.97;;
31872;SDS011;22407;42.820;23.374;2023-08-21T09:35:32;9.47;;;6.10;;
31872;SDS011;22407;42.820;23.374;2023-08-21T09:37:57;9.10;;;5.78;;
31872;SDS011;22407;42.820;23.374;2023-08-21T09:40:23;11.35;;;5.93;;
31872;SDS011;22407;42.820;23.374;2023-08-21T09:42:52;10.23;;;5.70;;
31872;SDS011;22407;42.820;23.374;2023-08-21T09:45:21;11.40;;;5.85;;
31872;SDS011;22407;42.820;23.374;2023-08-21T09:47:47;10.52;;;6.20;;
31872;SDS011;22407;42.820;23.374;2023-08-21T09:50:12;10.88;;;5.90;;
31872;SDS011;22407;42.820;23.374;2023-08-21T09:52:38;9.23;;;5.87;;
31872;SDS011;22407;42.820;23.374;2023-08-21T09:55:03;9.90;;;5.83;;
31872;SDS011;22407;42.820;23.374;2023-08-21T09:57:30;11.23;;;5.80;;
31872;SDS011;22407;42.820;23.374;2023-08-21T09:59:56;10.25;;;5.95;;
31872;SDS011;22407;42.820;23.374;2023-08-21T10:02:22;10.05;;;5.47;;
31872;SDS011;22407;42.820;23.374;2023-08-21T10:04:48;11.52;;;5.00;;
31872;SDS011;22407;42.820;23.374;2023-08-21T10:07:15;16.55;;;5.32;;
31872;SDS011;22407;42.820;23.374;2023-08-21T10:09:41;8.75;;;5.05;;
31872;SDS011;22407;42.820;23.374;2023-08-21T10:12:08;13.63;;;5.32;;
31872;SDS011;22407;42.820;23.374;2023-08-21T10:14:34;8.70;;;4.93;;
31872;SDS011;22407;42.820;23.374;2023-08-21T10:16:59;10.23;;;5.37;;
31872;SDS011;22407;42.820;23.374;2023-08-21T10:19:30;15.27;;;5.23;;
31872;SDS011;22407;42.820;23.374;2023-08-21T10:21:55;9.00;;;4.75;;
31872;SDS011;22407;42.820;23.374;2023-08-21T10:24:28;8.53;;;5.13;;
31872;SDS011;22407;42.820;23.374;2023-08-21T10:26:53;11.52;;;4.90;;
31872;SDS011;22407;42.820;23.374;2023-08-21T10:29:19;10.43;;;5.60;;
31872;SDS011;22407;42.820;23.374;2023-08-21T10:31:45;11.25;;;5.45;;
31872;SDS011;22407;42.820;23.374;2023-08-21T10:49:24;10.60;;;5.45;;
31872;SDS011;22407;42.820;23.374;2023-08-21T10:51:50;11.40;;;5.20;;
31872;SDS011;22407;42.820;23.374;2023-08-21T10:54:15;9.20;;;5.30;;
31872;SDS011;22407;42.820;23.374;2023-08-21T10:56:41;9.17;;;5.30;;
31872;SDS011;22407;42.820;23.374;2023-08-21T10:59:06;8.75;;;5.45;;
31872;SDS011;22407;42.820;23.374;2023-08-21T11:01:44;9.77;;;5.60;;
31872;SDS011;22407;42.820;23.374;2023-08-21T11:04:10;10.10;;;5.47;;
31872;SDS011;22407;42.820;23.374;2023-08-21T11:06:35;10.07;;;5.50;;
31872;SDS011;22407;42.820;23.374;2023-08-21T11:09:02;10.27;;;5.77;;
31872;SDS011;22407;42.820;23.374;2023-08-21T11:11:28;12.02;;;5.35;;
31872;SDS011;22407;42.820;23.374;2023-08-21T11:13:53;8.57;;;5.37;;
31872;SDS011;22407;42.820;23.374;2023-08-21T11:16:18;9.40;;;5.30;;
31872;SDS011;22407;42.820;23.374;2023-08-21T11:18:44;10.80;;;5.80;;
31872;SDS011;22407;42.820;23.374;2023-08-21T11:21:10;9.88;;;5.40;;
31872;SDS011;22407;42.820;23.374;2023-08-21T11:23:37;10.77;;;5.43;;
31872;SDS011;22407;42.820;23.374;2023-08-21T11:26:02;8.27;;;5.03;;
31872;SDS011;22407;42.820;23.374;2023-08-21T11:28:29;9.95;;;5.68;;
31872;SDS011;22407;42.820;23.374;2023-08-21T11:30:58;9.85;;;5.30;;
31872;SDS011;22407;42.820;23.374;2023-08-21T11:33:23;9.05;;;5.70;;
31872;SDS011;22407;42.820;23.374;2023-08-21T11:35:49;11.43;;;5.68;;
31872;SDS011;22407;42.820;23.374;2023-08-21T11:38:18;9.57;;;5.33;;
31872;SDS011;22407;42.820;23.374;2023-08-21T11:40:57;8.63;;;5.32;;
31872;SDS011;22407;42.820;23.374;2023-08-21T11:43:44;10.35;;;5.35;;
31872;SDS011;22407;42.820;23.374;2023-08-21T11:46:09;11.45;;;5.32;;
31872;SDS011;22407;42.820;23.374;2023-08-21T11:48:37;9.87;;;5.17;;
31872;SDS011;22407;42.820;23.374;2023-08-21T11:51:02;9.85;;;5.45;;
31872;SDS011;22407;42.820;23.374;2023-08-21T11:55:56;10.43;;;5.45;;
31872;SDS011;22407;42.820;23.374;2023-08-21T11:58:21;10.10;;;5.50;;
31872;SDS011;22407;42.820;23.374;2023-08-21T12:00:46;10.37;;;5.80;;
31872;SDS011;22407;42.820;23.374;2023-08-21T12:03:12;10.77;;;4.77;;
31872;SDS011;22407;42.820;23.374;2023-08-21T12:05:42;9.50;;;5.43;;
31872;SDS011;22407;42.820;23.374;2023-08-21T12:08:09;9.73;;;5.30;;
31872;SDS011;22407;42.820;23.374;2023-08-21T12:10:34;9.60;;;5.53;;
31872;SDS011;22407;42.820;23.374;2023-08-21T12:12:59;8.80;;;5.50;;
31872;SDS011;22407;42.820;23.374;2023-08-21T12:15:25;9.17;;;5.10;;
31872;SDS011;22407;42.820;23.374;2023-08-21T12:17:50;9.80;;;5.20;;
31872;SDS011;22407;42.820;23.374;2023-08-21T12:20:15;11.90;;;5.00;;
31872;SDS011;22407;42.820;23.374;2023-08-21T12:22:41;9.37;;;5.63;;
31872;SDS011;22407;42.820;23.374;2023-08-21T12:25:07;8.88;;;5.45;;
31872;SDS011;22407;42.820;23.374;2023-08-21T12:27:33;8.85;;;5.30;;
31872;SDS011;22407;42.820;23.374;2023-08-21T12:29:58;9.90;;;5.50;;
31872;SDS011;22407;42.820;23.374;2023-08-21T12:32:24;9.23;;;5.20;;
31872;SDS011;22407;42.820;23.374;2023-08-21T12:34:49;11.70;;;5.30;;
31872;SDS011;22407;42.820;23.374;2023-08-21T12:37:14;9.20;;;5.10;;
31872;SDS011;22407;42.820;23.374;2023-08-21T12:39:39;9.20;;;5.20;;
31872;SDS011;22407;42.820;23.374;2023-08-21T12:42:05;8.80;;;5.40;;
31872;SDS011;22407;42.820;23.374;2023-08-21T12:44:30;10.43;;;5.50;;
31872;SDS011;22407;42.820;23.374;2023-08-21T12:46:55;8.93;;;5.33;;
31872;SDS011;22407;42.820;23.374;2023-08-21T12:49:21;9.17;;;5.33;;
31872;SDS011;22407;42.820;23.374;2023-08-21T12:51:46;9.50;;;5.27;;
31872;SDS011;22407;42.820;23.374;2023-08-21T12:54:11;9.97;;;5.03;;
31872;SDS011;22407;42.820;23.374;2023-08-21T12:56:37;10.43;;;5.50;;
31872;SDS011;22407;42.820;23.374;2023-08-21T12:59:02;11.00;;;5.57;;
31872;SDS011;22407;42.820;23.374;2023-08-21T13:01:28;10.63;;;5.45;;
31872;SDS011;22407;42.820;23.374;2023-08-21T13:03:53;9.00;;;5.50;;
31872;SDS011;22407;42.820;23.374;2023-08-21T13:06:18;10.70;;;5.20;;
31872;SDS011;22407;42.820;23.374;2023-08-21T13:08:43;9.00;;;5.30;;
31872;SDS011;22407;42.820;23.374;2023-08-21T13:11:09;9.48;;;5.40;;
31872;SDS011;22407;42.820;23.374;2023-08-21T13:13:35;9.98;;;5.32;;
31872;SDS011;22407;42.820;23.374;2023-08-21T13:16:00;12.43;;;5.50;;
31872;SDS011;22407;42.820;23.374;2023-08-21T13:18:26;9.53;;;5.50;;
31872;SDS011;22407;42.820;23.374;2023-08-21T13:20:51;10.05;;;5.55;;
31872;SDS011;22407;42.820;23.374;2023-08-21T13:23:16;10.17;;;5.53;;
31872;SDS011;22407;42.820;23.374;2023-08-21T13:25:41;8.93;;;5.63;;
31872;SDS011;22407;42.820;23.374;2023-08-21T13:28:07;8.37;;;5.30;;
31872;SDS011;22407;42.820;23.374;2023-08-21T13:30:32;9.93;;;5.60;;
31872;SDS011;22407;42.820;23.374;2023-08-21T13:32:57;13.17;;;5.70;;
31872;SDS011;22407;42.820;23.374;2023-08-21T13:35:23;11.97;;;5.60;;
31872;SDS011;22407;42.820;23.374;2023-08-21T13:37:48;10.77;;;5.70;;
31872;SDS011;22407;42.820;23.374;2023-08-21T13:40:13;8.30;;;5.38;;
31872;SDS011;22407;42.820;23.374;2023-08-21T13:42:41;10.10;;;5.60;;
31872;SDS011;22407;42.820;23.374;2023-08-21T13:45:14;8.73;;;5.55;;
31872;SDS011;22407;42.820;23.374;2023-08-21T13:47:40;9.40;;;5.43;;
31872;SDS011;22407;42.820;23.374;2023-08-21T13:50:06;12.20;;;5.80;;
31872;SDS011;22407;42.820;23.374;2023-08-21T13:52:31;9.98;;;5.68;;
31872;SDS011;22407;42.820;23.374;2023-08-21T13:54:57;12.97;;;5.77;;
31872;SDS011;22407;42.820;23.374;2023-08-21T13:57:23;10.05;;;5.40;;
31872;SDS011;22407;42.820;23.374;2023-08-21T13:59:48;9.03;;;5.60;;
31872;SDS011;22407;42.820;23.374;2023-08-21T14:02:13;10.67;;;5.43;;
31872;SDS011;22407;42.820;23.374;2023-08-21T14:04:38;10.07;;;5.83;;
31872;SDS011;22407;42.820;23.374;2023-08-21T14:07:04;9.40;;;5.70;;
31872;SDS011;22407;42.820;23.374;2023-08-21T14:09:29;9.47;;;5.53;;
31872;SDS011;22407;42.820;23.374;2023-08-21T14:11:54;8.80;;;5.63;;
31872;SDS011;22407;42.820;23.374;2023-08-21T14:14:19;9.73;;;5.83;;
31872;SDS011;22407;42.820;23.374;2023-08-21T14:16:45;10.67;;;5.70;;
31872;SDS011;22407;42.820;23.374;2023-08-21T14:19:10;9.38;;;5.50;;
31872;SDS011;22407;42.820;23.374;2023-08-21T14:21:35;10.97;;;5.70;;
31872;SDS011;22407;42.820;23.374;2023-08-21T14:24:01;9.63;;;5.50;;
31872;SDS011;22407;42.820;23.374;2023-08-21T14:26:26;11.43;;;5.60;;
31872;SDS011;22407;42.820;23.374;2023-08-21T14:28:51;13.07;;;5.70;;
31872;SDS011;22407;42.820;23.374;2023-08-21T14:31:17;14.73;;;6.40;;
31872;SDS011;22407;42.820;23.374;2023-08-21T14:33:42;10.57;;;5.60;;
31872;SDS011;22407;42.820;23.374;2023-08-21T14:36:08;11.07;;;5.50;;
31872;SDS011;22407;42.820;23.374;2023-08-21T14:38:33;10.47;;;5.50;;
31872;SDS011;22407;42.820;23.374;2023-08-21T14:40:58;15.15;;;5.80;;
31872;SDS011;22407;42.820;23.374;2023-08-21T14:43:24;17.67;;;5.60;;